createdAt,value
2018-11-06T00:01:09.604Z,42.63
2018-11-06T00:03:44.815Z,39.27
2018-11-06T00:06:15.275Z,39.13
2018-11-06T00:08:45.647Z,38.93
2018-11-06T00:11:16.028Z,36.73
2018-11-06T00:13:46.575Z,39.17
2018-11-06T00:16:16.924Z,41.90
2018-11-06T00:18:47.259Z,42.07
2018-11-06T00:21:17.555Z,45.20
2018-11-06T00:23:48.054Z,38.30
2018-11-06T00:26:18.204Z,35.97
2018-11-06T00:28:48.714Z,39.03
2018-11-06T00:31:19.295Z,41.27
2018-11-06T00:33:49.852Z,39.47
2018-11-06T00:36:20.271Z,48.10
2018-11-06T00:38:50.735Z,47.87
2018-11-06T00:41:20.991Z,45.43
2018-11-06T00:43:53.981Z,46.70
2018-11-06T00:46:24.318Z,42.97
2018-11-06T00:48:54.692Z,41.83
2018-11-06T00:51:25.004Z,43.40
2018-11-06T00:53:55.345Z,41.47
2018-11-06T00:56:25.642Z,44.00
2018-11-06T00:58:56.012Z,42.30
2018-11-06T01:01:26.422Z,38.90
2018-11-06T01:04:01.865Z,41.93
2018-11-06T01:06:32.072Z,47.03
2018-11-06T01:09:02.463Z,44.80
2018-11-06T01:11:32.951Z,47.73
2018-11-06T01:14:03.557Z,48.03
2018-11-06T01:16:34.140Z,48.13
2018-11-06T01:19:04.517Z,46.57
2018-11-06T01:21:34.975Z,46.20
2018-11-06T01:24:05.525Z,43.70
2018-11-06T01:26:36.031Z,42.33
2018-11-06T01:29:06.918Z,41.10
2018-11-06T01:31:37.316Z,38.90
2018-11-06T01:34:07.805Z,41.87
2018-11-06T01:36:38.046Z,44.93
2018-11-06T01:39:10.347Z,40.70
2018-11-06T01:41:40.791Z,40.20
2018-11-06T01:44:11.269Z,40.30
2018-11-06T01:46:42.123Z,43.50
2018-11-06T01:49:12.633Z,46.50
2018-11-06T01:51:43.043Z,44.10
2018-11-06T01:54:13.499Z,39.40
2018-11-06T01:56:43.984Z,41.00
2018-11-06T01:59:14.363Z,45.10
2018-11-06T02:01:44.739Z,47.33
2018-11-06T02:04:14.999Z,37.80
2018-11-06T02:06:45.393Z,40.27
2018-11-06T02:09:15.953Z,40.47
2018-11-06T02:11:46.445Z,44.47
2018-11-06T02:14:16.814Z,44.13
2018-11-06T02:16:46.986Z,40.20
2018-11-06T02:19:17.360Z,42.23
2018-11-06T02:21:47.666Z,42.40
2018-11-06T02:24:18.151Z,44.87
2018-11-06T02:26:48.505Z,48.20
2018-11-06T02:29:19.739Z,46.57
2018-11-06T02:31:50.096Z,49.03
2018-11-06T02:34:21.075Z,49.93
2018-11-06T02:36:51.445Z,47.27
2018-11-06T02:39:22.005Z,45.87
2018-11-06T02:41:52.541Z,44.87
2018-11-06T02:44:22.931Z,41.83
2018-11-06T02:46:53.563Z,46.90
2018-11-06T02:49:24.106Z,46.67
2018-11-06T02:51:54.329Z,40.23
2018-11-06T02:54:24.705Z,38.53
2018-11-06T02:56:55.161Z,43.40
2018-11-06T02:59:25.676Z,41.00
2018-11-06T03:01:56.003Z,42.90
2018-11-06T03:04:26.336Z,40.40
2018-11-06T03:06:56.647Z,43.47
2018-11-06T03:09:27.026Z,44.30
2018-11-06T03:11:57.696Z,46.13
2018-11-06T03:14:27.900Z,42.80
2018-11-06T03:16:58.494Z,46.23
2018-11-06T03:19:28.746Z,42.50
2018-11-06T03:21:59.196Z,48.77
2018-11-06T03:24:29.694Z,45.73
2018-11-06T03:27:01.011Z,47.40
2018-11-06T03:29:31.291Z,47.10
2018-11-06T03:32:01.666Z,45.20
2018-11-06T03:37:08.581Z,39.60
2018-11-06T03:39:38.838Z,40.13
2018-11-06T03:42:09.198Z,41.87
2018-11-06T03:44:39.827Z,40.77
2018-11-06T03:47:10.083Z,39.93
2018-11-06T03:49:40.337Z,45.73
2018-11-06T03:52:10.723Z,41.00
2018-11-06T03:54:41.314Z,42.60
2018-11-06T03:57:11.852Z,47.33
2018-11-06T03:59:42.405Z,43.90
2018-11-06T04:02:12.728Z,39.07
2018-11-06T04:04:43.114Z,39.60
2018-11-06T04:07:13.439Z,37.60
2018-11-06T04:09:43.676Z,38.70
2018-11-06T04:12:14.067Z,37.00
2018-11-06T04:14:43.786Z,37.03
2018-11-06T04:17:14.013Z,31.30
2018-11-06T04:19:44.399Z,31.80
2018-11-06T04:22:14.786Z,35.10
2018-11-06T04:24:45.136Z,34.17
2018-11-06T04:27:15.547Z,32.60
2018-11-06T04:29:46.021Z,34.67
2018-11-06T04:32:16.517Z,43.27
2018-11-06T04:34:47.024Z,42.67
2018-11-06T04:37:17.348Z,42.40
2018-11-06T04:39:47.825Z,38.63
2018-11-06T04:42:18.164Z,41.53
2018-11-06T04:44:48.731Z,36.20
2018-11-06T04:47:19.317Z,37.50
2018-11-06T04:49:49.673Z,35.67
2018-11-06T04:52:20.027Z,34.60
2018-11-06T04:54:50.347Z,33.60
2018-11-06T04:57:20.929Z,34.83
2018-11-06T04:59:51.412Z,34.80
2018-11-06T05:02:21.864Z,36.40
2018-11-06T05:04:52.447Z,35.40
2018-11-06T05:07:22.720Z,35.53
2018-11-06T05:09:53.003Z,32.80
2018-11-06T05:12:23.277Z,33.00
2018-11-06T05:14:53.771Z,31.20
2018-11-06T05:17:23.956Z,35.00
2018-11-06T05:19:54.316Z,33.90
2018-11-06T05:22:24.691Z,34.37
2018-11-06T05:24:55.273Z,32.50
2018-11-06T05:27:25.835Z,32.60
2018-11-06T05:29:56.278Z,36.47
2018-11-06T05:32:26.648Z,34.80
2018-11-06T05:34:57.119Z,39.13
2018-11-06T05:37:27.637Z,39.67
2018-11-06T05:40:14.526Z,40.33
2018-11-06T05:42:44.731Z,40.67
2018-11-06T05:45:15.387Z,36.93
2018-11-06T05:47:45.448Z,39.13
2018-11-06T05:50:15.512Z,37.17
2018-11-06T05:52:45.639Z,37.07
2018-11-06T05:55:15.808Z,40.53
2018-11-06T05:57:45.811Z,35.30
2018-11-06T06:00:15.916Z,37.00
2018-11-06T06:02:46.358Z,39.20
2018-11-06T06:05:16.735Z,38.10
2018-11-06T06:07:47.194Z,37.10
2018-11-06T06:10:17.647Z,37.90
2018-11-06T06:12:48.093Z,34.53
2018-11-06T06:15:18.493Z,34.23
2018-11-06T06:17:48.824Z,34.97
2018-11-06T06:20:19.259Z,34.37
2018-11-06T06:22:49.751Z,39.33
2018-11-06T06:25:20.163Z,43.07
2018-11-06T06:27:50.536Z,43.23
2018-11-06T06:30:21.117Z,40.90
2018-11-06T06:32:51.599Z,36.27
2018-11-06T06:35:22.188Z,34.63
2018-11-06T06:37:52.580Z,36.63
2018-11-06T06:40:23.041Z,35.77
2018-11-06T06:42:53.305Z,34.90
2018-11-06T06:45:24.638Z,36.53
2018-11-06T06:47:54.959Z,34.30
2018-11-06T06:50:25.460Z,33.00
2018-11-06T06:52:55.662Z,34.17
2018-11-06T06:55:26.015Z,32.67
2018-11-06T06:57:56.460Z,33.63
2018-11-06T07:00:26.891Z,34.83
2018-11-06T07:02:57.082Z,32.57
2018-11-06T07:05:27.652Z,29.97
2018-11-06T07:07:57.960Z,32.57
2018-11-06T07:10:28.847Z,33.23
2018-11-06T07:12:59.445Z,30.07
2018-11-06T07:15:29.784Z,30.40
2018-11-06T07:18:00.191Z,26.63
2018-11-06T07:20:30.510Z,26.40
2018-11-06T07:23:00.741Z,26.33
2018-11-06T07:25:31.110Z,24.53
2018-11-06T07:28:01.355Z,25.17
2018-11-06T07:30:31.968Z,25.97
2018-11-06T07:33:02.593Z,27.00
2018-11-06T07:35:34.074Z,26.50
2018-11-06T07:38:04.351Z,27.40
2018-11-06T07:40:34.883Z,26.10
2018-11-06T07:43:05.220Z,24.90
2018-11-06T07:45:35.667Z,22.77
2018-11-06T07:48:06.201Z,24.00
2018-11-06T07:50:36.527Z,25.00
2018-11-06T07:53:07.033Z,22.73
2018-11-06T07:55:38.023Z,22.20
2018-11-06T07:58:08.533Z,23.70
2018-11-06T08:00:39.015Z,22.83
2018-11-06T08:03:09.479Z,22.83
2018-11-06T08:05:39.856Z,22.13
2018-11-06T08:08:10.199Z,22.03
2018-11-06T08:10:40.674Z,23.70
2018-11-06T08:13:11.095Z,24.80
2018-11-06T08:15:41.705Z,25.20
2018-11-06T08:18:11.936Z,25.33
2018-11-06T08:20:42.291Z,27.60
2018-11-06T08:23:12.519Z,25.97
2018-11-06T08:25:42.847Z,28.03
2018-11-06T08:28:13.190Z,26.97
2018-11-06T08:30:43.696Z,27.27
2018-11-06T08:33:14.132Z,27.57
2018-11-06T08:35:44.477Z,27.87
2018-11-06T08:38:14.663Z,28.60
2018-11-06T08:40:45.150Z,28.97
2018-11-06T08:43:15.563Z,29.00
2018-11-06T08:45:45.805Z,27.87
2018-11-06T08:48:16.080Z,26.37
2018-11-06T08:50:46.616Z,25.97
2018-11-06T08:53:17.200Z,26.17
2018-11-06T08:55:47.743Z,26.33
2018-11-06T08:58:18.064Z,25.73
2018-11-06T09:00:48.485Z,25.83
2018-11-06T09:03:18.841Z,27.60
2018-11-06T09:05:49.264Z,26.83
2018-11-06T09:08:19.648Z,27.37
2018-11-06T09:10:49.905Z,27.90
2018-11-06T09:13:20.271Z,27.27
2018-11-06T09:15:50.824Z,28.67
2018-11-06T09:18:21.279Z,28.37
2018-11-06T09:20:51.815Z,28.17
2018-11-06T09:23:22.008Z,28.87
2018-11-06T09:25:52.400Z,30.30
2018-11-06T09:28:22.895Z,28.80
2018-11-06T09:30:53.576Z,26.90
2018-11-06T09:33:23.963Z,30.03
2018-11-06T09:35:54.191Z,29.53
2018-11-06T09:38:24.590Z,28.10
2018-11-06T09:40:55.052Z,29.90
2018-11-06T09:43:25.385Z,29.27
2018-11-06T09:45:55.951Z,28.83
2018-11-06T09:48:26.223Z,28.93
2018-11-06T09:50:56.698Z,29.07
2018-11-06T09:53:27.013Z,28.20
2018-11-06T09:55:57.462Z,27.13
2018-11-06T09:58:27.835Z,27.40
2018-11-06T10:00:58.309Z,28.83
2018-11-06T10:03:28.610Z,27.90
2018-11-06T10:05:59.173Z,27.23
2018-11-06T10:08:31.550Z,26.40
2018-11-06T10:11:02.107Z,26.17
2018-11-06T10:13:32.691Z,26.70
2018-11-06T10:16:03.048Z,26.87
2018-11-06T10:18:33.325Z,26.37
2018-11-06T10:21:03.825Z,27.53
2018-11-06T10:23:34.302Z,27.17
2018-11-06T10:26:04.898Z,26.40
2018-11-06T10:28:35.473Z,27.53
2018-11-06T10:31:06.158Z,26.23
2018-11-06T10:33:36.640Z,26.37
2018-11-06T10:36:07.199Z,26.10
2018-11-06T10:38:37.488Z,25.50
2018-11-06T10:41:08.096Z,25.60
2018-11-06T10:43:38.638Z,24.13
2018-11-06T10:46:10.085Z,25.97
2018-11-06T10:48:40.898Z,24.97
2018-11-06T10:51:11.411Z,25.43
2018-11-06T10:53:41.719Z,24.40
2018-11-06T10:56:13.032Z,25.60
2018-11-06T10:58:44.226Z,28.10
2018-11-06T11:01:19.716Z,27.03
2018-11-06T11:03:55.025Z,27.50
2018-11-06T11:06:25.383Z,26.87
2018-11-06T11:08:55.699Z,28.03
2018-11-06T11:11:26.143Z,27.10
2018-11-06T11:13:56.503Z,26.40
2018-11-06T11:16:27.039Z,27.67
2018-11-06T11:18:57.260Z,27.77
2018-11-06T11:21:27.772Z,26.83
2018-11-06T11:23:58.255Z,27.20
2018-11-06T11:26:28.820Z,25.60
2018-11-06T11:28:59.427Z,25.33
2018-11-06T11:31:30.028Z,26.53
2018-11-06T11:34:00.270Z,25.70
2018-11-06T11:36:30.743Z,26.13
2018-11-06T11:39:01.129Z,26.13
2018-11-06T11:41:31.630Z,26.60
2018-11-06T11:44:02.172Z,25.30
2018-11-06T11:46:32.384Z,25.60
2018-11-06T11:49:02.972Z,26.33
2018-11-06T11:51:33.479Z,26.67
2018-11-06T11:54:03.850Z,26.13
2018-11-06T11:56:34.300Z,25.60
2018-11-06T11:59:05.235Z,25.73
2018-11-06T12:01:35.587Z,25.13
2018-11-06T12:04:06.707Z,25.37
2018-11-06T12:06:36.928Z,23.37
2018-11-06T12:09:10.267Z,25.20
2018-11-06T12:11:40.862Z,22.97
2018-11-06T12:14:11.339Z,24.00
2018-11-06T12:16:41.884Z,25.87
2018-11-06T12:19:12.348Z,24.47
2018-11-06T12:21:42.836Z,25.40
2018-11-06T12:24:13.377Z,25.30
2018-11-06T12:26:43.774Z,26.67
2018-11-06T12:29:14.054Z,25.63
2018-11-06T12:31:44.814Z,25.10
2018-11-06T12:34:15.249Z,24.17
2018-11-06T12:36:45.603Z,24.20
2018-11-06T12:39:16.219Z,22.27
2018-11-06T12:41:46.762Z,23.10
2018-11-06T12:44:17.180Z,21.87
2018-11-06T12:46:47.427Z,22.03
2018-11-06T12:49:17.988Z,21.00
2018-11-06T12:51:48.401Z,21.23
2018-11-06T12:54:18.788Z,21.03
2018-11-06T12:56:49.072Z,21.20
2018-11-06T12:59:19.649Z,21.70
2018-11-06T13:01:50.239Z,21.90
2018-11-06T13:04:20.804Z,20.47
2018-11-06T13:06:51.279Z,21.23
2018-11-06T13:09:21.540Z,20.43
2018-11-06T13:11:51.903Z,21.23
2018-11-06T13:14:22.309Z,21.10
2018-11-06T13:16:52.910Z,22.23
2018-11-06T13:19:23.418Z,21.77
2018-11-06T13:21:53.827Z,23.43
2018-11-06T13:24:24.151Z,22.70
2018-11-06T13:26:54.662Z,22.90
2018-11-06T13:29:25.094Z,21.73
2018-11-06T13:31:55.595Z,21.40
2018-11-06T13:34:26.055Z,21.33
2018-11-06T13:36:56.658Z,22.40
2018-11-06T13:39:26.948Z,22.90
2018-11-06T13:41:57.317Z,24.40
2018-11-06T13:44:28.000Z,22.43
2018-11-06T13:46:58.862Z,20.50
2018-11-06T13:49:29.185Z,21.60
2018-11-06T13:51:59.589Z,22.30
2018-11-06T13:54:30.039Z,21.87
2018-11-06T13:57:00.263Z,21.20
2018-11-06T13:59:30.673Z,21.33
2018-11-06T14:02:01.216Z,22.93
2018-11-06T14:04:31.662Z,22.50
2018-11-06T14:07:02.407Z,21.40
2018-11-06T14:09:32.596Z,21.03
2018-11-06T14:12:02.873Z,22.73
2018-11-06T14:14:33.289Z,21.90
2018-11-06T14:17:03.675Z,20.53
2018-11-06T14:19:34.066Z,22.13
2018-11-06T14:22:04.440Z,21.20
2018-11-06T14:24:34.698Z,22.17
2018-11-06T14:27:05.118Z,22.63
2018-11-06T14:29:35.344Z,22.47
2018-11-06T14:32:05.736Z,22.90
2018-11-06T14:34:36.326Z,22.97
2018-11-06T14:37:07.064Z,22.83
2018-11-06T14:39:37.480Z,22.93
2018-11-06T14:42:08.186Z,24.50
2018-11-06T14:44:38.544Z,24.07
2018-11-06T14:47:09.137Z,24.50
2018-11-06T14:49:39.632Z,23.70
2018-11-06T14:52:10.111Z,24.20
2018-11-06T14:54:40.603Z,23.80
2018-11-06T14:57:11.059Z,24.23
2018-11-06T14:59:42.340Z,23.90
2018-11-06T15:02:12.819Z,25.70
2018-11-06T15:04:43.228Z,24.77
2018-11-06T15:07:13.720Z,26.20
2018-11-06T15:09:44.188Z,25.87
2018-11-06T15:12:14.650Z,25.90
2018-11-06T15:14:45.131Z,25.43
2018-11-06T15:17:15.972Z,26.90
2018-11-06T15:19:46.427Z,23.47
2018-11-06T15:22:17.011Z,24.90
2018-11-06T15:24:47.516Z,25.97
2018-11-06T15:27:17.760Z,26.70
2018-11-06T15:29:48.144Z,27.47
2018-11-06T15:32:18.759Z,27.53
2018-11-06T15:34:49.215Z,26.67
2018-11-06T15:37:19.580Z,26.73
2018-11-06T15:39:49.972Z,26.70
2018-11-06T15:42:20.883Z,27.77
2018-11-06T15:44:51.324Z,28.23
2018-11-06T15:47:21.756Z,26.97
2018-11-06T15:49:52.207Z,28.00
2018-11-06T15:52:23.116Z,29.27
2018-11-06T15:54:53.565Z,28.63
2018-11-06T15:57:24.173Z,29.33
2018-11-06T15:59:54.675Z,29.70
2018-11-06T16:02:25.017Z,29.30
2018-11-06T16:04:55.404Z,29.90
2018-11-06T16:07:25.664Z,30.53
2018-11-06T16:09:56.178Z,31.03
2018-11-06T16:12:26.533Z,32.57
2018-11-06T16:14:56.807Z,33.80
2018-11-06T16:17:27.303Z,31.47
2018-11-06T16:19:57.768Z,40.57
2018-11-06T16:22:28.362Z,34.17
2018-11-06T16:24:58.774Z,37.03
2018-11-06T16:27:29.302Z,36.60
2018-11-06T16:30:00.026Z,36.43
2018-11-06T16:32:30.417Z,34.50
2018-11-06T16:35:00.889Z,34.10
2018-11-06T16:37:31.364Z,32.40
2018-11-06T16:40:01.841Z,34.83
2018-11-06T16:42:32.207Z,34.23
2018-11-06T16:45:02.668Z,37.13
2018-11-06T16:47:33.055Z,36.30
2018-11-06T16:50:03.481Z,35.40
2018-11-06T16:52:33.822Z,34.30
2018-11-06T16:55:04.235Z,34.97
2018-11-06T16:57:34.668Z,38.90
2018-11-06T17:00:05.642Z,37.87
2018-11-06T17:02:37.312Z,36.90
2018-11-06T17:05:09.889Z,35.03
2018-11-06T17:07:40.472Z,33.13
2018-11-06T17:10:12.655Z,35.70
2018-11-06T17:12:43.137Z,33.57
2018-11-06T17:15:17.075Z,33.80
2018-11-06T17:17:48.420Z,33.03
2018-11-06T17:20:19.241Z,33.70
2018-11-06T17:22:49.773Z,35.73
2018-11-06T17:25:21.279Z,32.70
2018-11-06T17:27:51.541Z,34.30
2018-11-06T17:30:22.004Z,32.50
2018-11-06T17:32:52.634Z,31.53
2018-11-06T17:35:23.091Z,33.30
2018-11-06T17:37:53.543Z,31.40
2018-11-06T17:40:23.831Z,32.83
2018-11-06T17:42:54.323Z,33.07
2018-11-06T17:45:25.397Z,33.33
2018-11-06T17:47:55.995Z,35.10
2018-11-06T17:50:26.347Z,34.43
2018-11-06T17:52:56.888Z,35.03
2018-11-06T17:55:27.379Z,34.63
2018-11-06T17:57:57.960Z,33.47
2018-11-06T18:00:28.446Z,31.93
2018-11-06T18:02:58.940Z,33.70
2018-11-06T18:05:29.379Z,32.47
2018-11-06T18:07:59.840Z,32.77
2018-11-06T18:10:31.055Z,33.20
2018-11-06T18:13:01.432Z,33.00
2018-11-06T18:15:32.060Z,33.63
2018-11-06T18:18:02.703Z,33.90
2018-11-06T18:20:32.860Z,33.87
2018-11-06T18:23:03.579Z,32.47
2018-11-06T18:25:33.974Z,32.10
2018-11-06T18:28:04.528Z,30.90
2018-11-06T18:30:34.924Z,32.50
2018-11-06T18:33:05.297Z,33.47
2018-11-06T18:35:35.555Z,33.30
2018-11-06T18:38:06.265Z,33.23
2018-11-06T18:40:36.660Z,36.33
2018-11-06T18:43:07.328Z,37.57
2018-11-06T18:45:37.834Z,36.87
2018-11-06T18:48:08.415Z,36.03
2018-11-06T18:50:38.627Z,35.87
2018-11-06T18:53:09.141Z,32.70
2018-11-06T18:55:39.529Z,33.17
2018-11-06T18:58:10.147Z,35.27
2018-11-06T19:00:40.390Z,34.10
2018-11-06T19:03:10.661Z,34.20
2018-11-06T19:05:41.155Z,37.57
2018-11-06T19:08:12.107Z,35.57
2018-11-06T19:10:42.680Z,33.63
2018-11-06T19:13:13.274Z,35.37
2018-11-06T19:15:43.601Z,33.30
2018-11-06T19:18:13.953Z,36.30
2018-11-06T19:20:44.325Z,33.83
2018-11-06T19:23:14.739Z,37.23
2018-11-06T19:25:45.320Z,34.60
2018-11-06T19:28:16.377Z,35.10
2018-11-06T19:30:46.896Z,34.40
2018-11-06T19:33:18.019Z,34.33
2018-11-06T19:35:48.549Z,33.10
2018-11-06T19:38:19.086Z,34.20
2018-11-06T19:40:49.453Z,37.20
2018-11-06T19:43:19.792Z,36.07
2018-11-06T19:45:50.279Z,38.40
2018-11-06T19:48:20.821Z,37.70
2018-11-06T19:50:51.571Z,35.60
2018-11-06T19:53:22.340Z,32.10
2018-11-06T19:55:52.680Z,31.10
2018-11-06T19:58:23.318Z,28.40
2018-11-06T20:00:53.699Z,31.77
2018-11-06T20:03:24.105Z,36.30
2018-11-06T20:05:54.693Z,37.27
2018-11-06T20:08:25.224Z,34.37
2018-11-06T20:10:55.645Z,32.93
2018-11-06T20:13:26.078Z,33.27
2018-11-06T20:15:56.482Z,35.27
2018-11-06T20:18:26.852Z,34.97
2018-11-06T20:20:57.352Z,35.20
2018-11-06T20:23:27.866Z,36.27
2018-11-06T20:25:58.340Z,35.17
2018-11-06T20:28:28.808Z,33.27
2018-11-06T20:30:59.060Z,32.63
2018-11-06T20:33:29.594Z,33.47
2018-11-06T20:36:00.012Z,31.40
2018-11-06T20:38:30.608Z,32.90
2018-11-06T20:41:01.106Z,32.30
2018-11-06T20:43:31.708Z,32.47
2018-11-06T20:46:02.110Z,31.00
2018-11-06T20:48:32.560Z,31.33
2018-11-06T20:51:03.139Z,34.60
2018-11-06T20:53:33.690Z,42.37
2018-11-06T20:56:04.174Z,47.50
2018-11-06T20:58:34.676Z,42.30
2018-11-06T21:01:05.192Z,43.07
2018-11-06T21:03:36.691Z,42.90
2018-11-06T21:06:07.137Z,41.20
2018-11-06T21:08:37.435Z,40.53
2018-11-06T21:11:07.988Z,40.67
2018-11-06T21:13:38.363Z,38.87
2018-11-06T21:16:08.674Z,38.37
2018-11-06T21:18:39.176Z,41.00
2018-11-06T21:21:13.516Z,45.03
2018-11-06T21:23:45.125Z,41.20
2018-11-06T21:26:15.595Z,38.30
2018-11-06T21:28:45.849Z,37.00
2018-11-06T21:31:16.201Z,36.70
2018-11-06T21:33:46.826Z,37.13
2018-11-06T21:36:16.987Z,35.97
2018-11-06T21:38:47.411Z,34.60
2018-11-06T21:41:17.862Z,34.43
2018-11-06T21:43:48.439Z,36.00
2018-11-06T21:46:18.757Z,34.73
2018-11-06T21:48:49.253Z,34.30
2018-11-06T21:51:19.593Z,34.10
2018-11-06T21:53:49.967Z,29.30
2018-11-06T21:56:20.481Z,29.40
2018-11-06T21:58:50.901Z,29.23
2018-11-06T22:01:21.101Z,27.90
2018-11-06T22:03:51.604Z,32.03
2018-11-06T22:06:22.088Z,27.97
2018-11-06T22:08:52.575Z,27.80
2018-11-06T22:11:23.157Z,28.50
2018-11-06T22:13:53.515Z,27.40
2018-11-06T22:16:23.938Z,34.13
2018-11-06T22:18:54.273Z,27.17
2018-11-06T22:21:24.633Z,27.57
2018-11-06T22:23:54.912Z,27.37
2018-11-06T22:26:25.331Z,30.80
2018-11-06T22:28:55.807Z,31.37
2018-11-06T22:31:26.409Z,30.63
2018-11-06T22:33:56.899Z,33.43
2018-11-06T22:36:27.296Z,29.37
2018-11-06T22:38:57.604Z,31.33
2018-11-06T22:41:28.007Z,33.90
2018-11-06T22:43:58.399Z,35.40
2018-11-06T22:46:28.648Z,32.00
2018-11-06T22:48:58.912Z,30.63
2018-11-06T22:51:29.239Z,36.17
2018-11-06T22:53:59.729Z,34.93
2018-11-06T22:56:30.179Z,34.40
2018-11-06T22:59:00.559Z,33.40
2018-11-06T23:01:30.845Z,30.20
2018-11-06T23:48:35.616Z,24.00
2018-11-06T23:51:05.973Z,23.40
2018-11-06T23:53:36.356Z,25.43
2018-11-06T23:56:06.683Z,27.77
2018-11-06T23:58:37.026Z,26.60
